sensor_id;sensor_type;location;lat;lon;timestamp;P1;durP1;ratioP1;P2;durP2;ratioP2
12308;SDS011;6217;48.150;17.142;2023-05-07T00:01:02;1.23;;;0.93;;
12308;SDS011;6217;48.150;17.142;2023-05-07T00:05:08;3.03;;;1.33;;
12308;SDS011;6217;48.150;17.142;2023-05-07T00:09:14;2.13;;;1.05;;
12308;SDS011;6217;48.150;17.142;2023-05-07T00:13:20;2.60;;;1.10;;
12308;SDS011;6217;48.150;17.142;2023-05-07T00:17:25;1.27;;;1.00;;
12308;SDS011;6217;48.150;17.142;2023-05-07T00:21:31;2.88;;;1.00;;
12308;SDS011;6217;48.150;17.142;2023-05-07T00:25:37;1.38;;;0.98;;
12308;SDS011;6217;48.150;17.142;2023-05-07T00:29:43;1.10;;;0.80;;
12308;SDS011;6217;48.150;17.142;2023-05-07T00:33:49;2.17;;;0.80;;
12308;SDS011;6217;48.150;17.142;2023-05-07T00:37:55;1.25;;;0.95;;
12308;SDS011;6217;48.150;17.142;2023-05-07T00:42:01;1.88;;;1.10;;
12308;SDS011;6217;48.150;17.142;2023-05-07T00:46:08;1.83;;;0.77;;
12308;SDS011;6217;48.150;17.142;2023-05-07T00:50:15;1.77;;;0.80;;
12308;SDS011;6217;48.150;17.142;2023-05-07T00:54:22;1.10;;;1.00;;
12308;SDS011;6217;48.150;17.142;2023-05-07T00:58:28;4.00;;;1.27;;
12308;SDS011;6217;48.150;17.142;2023-05-07T01:02:35;4.57;;;1.40;;
12308;SDS011;6217;48.150;17.142;2023-05-07T01:06:41;1.15;;;0.90;;
12308;SDS011;6217;48.150;17.142;2023-05-07T01:10:48;2.22;;;1.10;;
12308;SDS011;6217;48.150;17.142;2023-05-07T01:14:54;1.60;;;1.50;;
12308;SDS011;6217;48.150;17.142;2023-05-07T01:19:00;2.45;;;1.10;;
12308;SDS011;6217;48.150;17.142;2023-05-07T01:23:06;1.58;;;1.33;;
12308;SDS011;6217;48.150;17.142;2023-05-07T01:27:12;1.95;;;1.80;;
12308;SDS011;6217;48.150;17.142;2023-05-07T01:31:19;7.38;;;2.50;;
12308;SDS011;6217;48.150;17.142;2023-05-07T01:35:37;2.58;;;1.90;;
12308;SDS011;6217;48.150;17.142;2023-05-07T01:39:46;3.08;;;1.88;;
12308;SDS011;6217;48.150;17.142;2023-05-07T01:43:54;2.10;;;1.90;;
12308;SDS011;6217;48.150;17.142;2023-05-07T01:48:01;1.95;;;1.77;;
12308;SDS011;6217;48.150;17.142;2023-05-07T01:52:09;2.95;;;1.98;;
12308;SDS011;6217;48.150;17.142;2023-05-07T01:56:17;2.95;;;2.17;;
12308;SDS011;6217;48.150;17.142;2023-05-07T02:00:24;3.15;;;2.20;;
12308;SDS011;6217;48.150;17.142;2023-05-07T02:04:30;9.57;;;4.50;;
12308;SDS011;6217;48.150;17.142;2023-05-07T02:08:37;2.85;;;2.55;;
12308;SDS011;6217;48.150;17.142;2023-05-07T02:12:44;3.80;;;2.75;;
12308;SDS011;6217;48.150;17.142;2023-05-07T02:16:50;2.40;;;2.20;;
12308;SDS011;6217;48.150;17.142;2023-05-07T02:20:56;3.55;;;2.50;;
12308;SDS011;6217;48.150;17.142;2023-05-07T02:25:02;3.88;;;2.38;;
12308;SDS011;6217;48.150;17.142;2023-05-07T02:29:08;2.97;;;2.67;;
12308;SDS011;6217;48.150;17.142;2023-05-07T02:33:16;3.60;;;2.70;;
12308;SDS011;6217;48.150;17.142;2023-05-07T02:37:22;3.90;;;2.67;;
12308;SDS011;6217;48.150;17.142;2023-05-07T02:41:28;3.88;;;2.60;;
12308;SDS011;6217;48.150;17.142;2023-05-07T02:45:34;6.05;;;2.70;;
12308;SDS011;6217;48.150;17.142;2023-05-07T02:49:43;4.90;;;3.42;;
12308;SDS011;6217;48.150;17.142;2023-05-07T02:53:50;3.78;;;3.08;;
12308;SDS011;6217;48.150;17.142;2023-05-07T02:57:56;3.95;;;3.25;;
12308;SDS011;6217;48.150;17.142;2023-05-07T03:02:03;3.35;;;3.00;;
12308;SDS011;6217;48.150;17.142;2023-05-07T03:06:09;6.82;;;3.92;;
12308;SDS011;6217;48.150;17.142;2023-05-07T03:10:15;3.53;;;3.00;;
12308;SDS011;6217;48.150;17.142;2023-05-07T03:14:21;3.88;;;2.70;;
12308;SDS011;6217;48.150;17.142;2023-05-07T03:18:27;5.15;;;4.22;;
12308;SDS011;6217;48.150;17.142;2023-05-07T03:22:33;4.68;;;4.22;;
12308;SDS011;6217;48.150;17.142;2023-05-07T03:26:39;5.72;;;4.50;;
12308;SDS011;6217;48.150;17.142;2023-05-07T03:30:45;8.43;;;4.40;;
12308;SDS011;6217;48.150;17.142;2023-05-07T03:34:51;5.00;;;4.50;;
12308;SDS011;6217;48.150;17.142;2023-05-07T03:38:57;5.07;;;4.65;;
12308;SDS011;6217;48.150;17.142;2023-05-07T03:43:06;7.72;;;5.20;;
12308;SDS011;6217;48.150;17.142;2023-05-07T03:47:15;8.50;;;5.43;;
12308;SDS011;6217;48.150;17.142;2023-05-07T03:51:21;7.85;;;6.95;;
12308;SDS011;6217;48.150;17.142;2023-05-07T03:55:27;7.43;;;5.05;;
12308;SDS011;6217;48.150;17.142;2023-05-07T03:59:37;5.80;;;5.25;;
12308;SDS011;6217;48.150;17.142;2023-05-07T04:03:45;5.68;;;5.20;;
12308;SDS011;6217;48.150;17.142;2023-05-07T04:07:51;6.65;;;5.53;;
12308;SDS011;6217;48.150;17.142;2023-05-07T04:12:04;6.60;;;5.53;;
12308;SDS011;6217;48.150;17.142;2023-05-07T04:16:11;6.50;;;5.90;;
12308;SDS011;6217;48.150;17.142;2023-05-07T04:20:17;6.75;;;5.82;;
12308;SDS011;6217;48.150;17.142;2023-05-07T04:24:30;5.63;;;5.13;;
12308;SDS011;6217;48.150;17.142;2023-05-07T04:28:39;7.65;;;6.65;;
12308;SDS011;6217;48.150;17.142;2023-05-07T04:32:46;6.28;;;5.28;;
12308;SDS011;6217;48.150;17.142;2023-05-07T04:36:53;9.07;;;7.20;;
12308;SDS011;6217;48.150;17.142;2023-05-07T04:41:03;7.10;;;6.25;;
12308;SDS011;6217;48.150;17.142;2023-05-07T04:45:14;7.80;;;6.55;;
12308;SDS011;6217;48.150;17.142;2023-05-07T04:49:23;7.78;;;6.47;;
12308;SDS011;6217;48.150;17.142;2023-05-07T04:53:31;9.10;;;7.13;;
12308;SDS011;6217;48.150;17.142;2023-05-07T04:57:37;7.85;;;7.13;;
12308;SDS011;6217;48.150;17.142;2023-05-07T05:01:46;7.10;;;6.40;;
12308;SDS011;6217;48.150;17.142;2023-05-07T05:05:52;6.93;;;6.10;;
12308;SDS011;6217;48.150;17.142;2023-05-07T05:10:01;6.72;;;6.13;;
12308;SDS011;6217;48.150;17.142;2023-05-07T05:14:11;6.90;;;6.35;;
12308;SDS011;6217;48.150;17.142;2023-05-07T05:18:17;5.43;;;4.85;;
12308;SDS011;6217;48.150;17.142;2023-05-07T05:22:24;5.38;;;4.30;;
12308;SDS011;6217;48.150;17.142;2023-05-07T05:26:31;4.78;;;4.38;;
12308;SDS011;6217;48.150;17.142;2023-05-07T05:30:37;5.07;;;4.57;;
12308;SDS011;6217;48.150;17.142;2023-05-07T05:34:44;4.50;;;4.10;;
12308;SDS011;6217;48.150;17.142;2023-05-07T05:38:50;4.78;;;4.38;;
12308;SDS011;6217;48.150;17.142;2023-05-07T05:42:56;5.85;;;5.35;;
12308;SDS011;6217;48.150;17.142;2023-05-07T05:47:03;8.63;;;4.47;;
12308;SDS011;6217;48.150;17.142;2023-05-07T05:51:09;4.82;;;4.35;;
12308;SDS011;6217;48.150;17.142;2023-05-07T05:55:15;3.90;;;3.60;;
12308;SDS011;6217;48.150;17.142;2023-05-07T05:59:21;4.40;;;4.10;;
12308;SDS011;6217;48.150;17.142;2023-05-07T06:03:29;5.63;;;5.13;;
12308;SDS011;6217;48.150;17.142;2023-05-07T06:07:37;6.78;;;5.63;;
12308;SDS011;6217;48.150;17.142;2023-05-07T06:11:43;9.52;;;6.53;;
12308;SDS011;6217;48.150;17.142;2023-05-07T06:15:51;6.68;;;5.97;;
12308;SDS011;6217;48.150;17.142;2023-05-07T06:19:57;5.63;;;5.15;;
12308;SDS011;6217;48.150;17.142;2023-05-07T06:24:03;6.70;;;6.10;;
12308;SDS011;6217;48.150;17.142;2023-05-07T06:28:09;5.90;;;5.38;;
12308;SDS011;6217;48.150;17.142;2023-05-07T06:32:19;7.57;;;6.22;;
12308;SDS011;6217;48.150;17.142;2023-05-07T06:36:25;6.85;;;5.68;;
12308;SDS011;6217;48.150;17.142;2023-05-07T06:40:35;5.72;;;5.18;;
12308;SDS011;6217;48.150;17.142;2023-05-07T06:44:41;6.03;;;5.53;;
12308;SDS011;6217;48.150;17.142;2023-05-07T06:48:50;6.57;;;5.97;;
12308;SDS011;6217;48.150;17.142;2023-05-07T06:52:57;7.18;;;6.28;;
12308;SDS011;6217;48.150;17.142;2023-05-07T06:57:04;7.45;;;6.40;;
12308;SDS011;6217;48.150;17.142;2023-05-07T07:01:11;7.95;;;7.15;;
12308;SDS011;6217;48.150;17.142;2023-05-07T07:05:17;9.25;;;7.82;;
12308;SDS011;6217;48.150;17.142;2023-05-07T07:09:23;10.27;;;9.15;;
12308;SDS011;6217;48.150;17.142;2023-05-07T07:13:30;11.10;;;9.70;;
12308;SDS011;6217;48.150;17.142;2023-05-07T07:17:36;13.90;;;10.60;;
12308;SDS011;6217;48.150;17.142;2023-05-07T07:21:42;13.43;;;12.05;;
12308;SDS011;6217;48.150;17.142;2023-05-07T07:25:50;14.18;;;12.65;;
12308;SDS011;6217;48.150;17.142;2023-05-07T07:29:56;15.90;;;13.70;;
12308;SDS011;6217;48.150;17.142;2023-05-07T07:34:03;15.27;;;13.65;;
12308;SDS011;6217;48.150;17.142;2023-05-07T07:38:09;16.88;;;13.35;;
12308;SDS011;6217;48.150;17.142;2023-05-07T07:42:15;17.08;;;14.43;;
12308;SDS011;6217;48.150;17.142;2023-05-07T07:46:22;14.10;;;11.80;;
12308;SDS011;6217;48.150;17.142;2023-05-07T07:50:28;13.75;;;10.75;;
12308;SDS011;6217;48.150;17.142;2023-05-07T07:54:34;14.27;;;11.68;;
12308;SDS011;6217;48.150;17.142;2023-05-07T07:58:40;14.35;;;11.18;;
12308;SDS011;6217;48.150;17.142;2023-05-07T08:02:46;10.55;;;9.52;;
12308;SDS011;6217;48.150;17.142;2023-05-07T08:06:59;12.00;;;10.38;;
12308;SDS011;6217;48.150;17.142;2023-05-07T08:11:05;10.88;;;9.65;;
12308;SDS011;6217;48.150;17.142;2023-05-07T08:15:14;12.93;;;9.32;;
12308;SDS011;6217;48.150;17.142;2023-05-07T08:19:21;10.45;;;9.45;;
12308;SDS011;6217;48.150;17.142;2023-05-07T08:23:28;10.15;;;9.13;;
12308;SDS011;6217;48.150;17.142;2023-05-07T08:27:34;10.07;;;9.07;;
12308;SDS011;6217;48.150;17.142;2023-05-07T08:31:40;9.63;;;8.65;;
12308;SDS011;6217;48.150;17.142;2023-05-07T08:35:47;10.15;;;8.98;;
12308;SDS011;6217;48.150;17.142;2023-05-07T08:39:54;9.65;;;8.73;;
12308;SDS011;6217;48.150;17.142;2023-05-07T08:44:03;12.13;;;7.75;;
12308;SDS011;6217;48.150;17.142;2023-05-07T08:48:17;9.02;;;8.23;;
12308;SDS011;6217;48.150;17.142;2023-05-07T08:52:33;9.88;;;6.88;;
12308;SDS011;6217;48.150;17.142;2023-05-07T08:56:40;6.90;;;6.20;;
12308;SDS011;6217;48.150;17.142;2023-05-07T09:00:46;5.13;;;4.55;;
12308;SDS011;6217;48.150;17.142;2023-05-07T09:04:53;4.20;;;3.78;;
12308;SDS011;6217;48.150;17.142;2023-05-07T09:08:59;5.25;;;4.72;;
12308;SDS011;6217;48.150;17.142;2023-05-07T09:13:08;6.72;;;4.63;;
12308;SDS011;6217;48.150;17.142;2023-05-07T09:17:18;5.07;;;3.80;;
12308;SDS011;6217;48.150;17.142;2023-05-07T09:21:24;6.80;;;5.95;;
12308;SDS011;6217;48.150;17.142;2023-05-07T09:25:34;7.53;;;6.07;;
12308;SDS011;6217;48.150;17.142;2023-05-07T09:29:47;5.63;;;5.13;;
12308;SDS011;6217;48.150;17.142;2023-05-07T09:33:55;6.10;;;5.50;;
12308;SDS011;6217;48.150;17.142;2023-05-07T09:38:03;7.55;;;5.60;;
12308;SDS011;6217;48.150;17.142;2023-05-07T09:42:10;5.55;;;4.78;;
12308;SDS011;6217;48.150;17.142;2023-05-07T09:46:18;4.60;;;4.10;;
12308;SDS011;6217;48.150;17.142;2023-05-07T09:50:35;4.70;;;4.20;;
12308;SDS011;6217;48.150;17.142;2023-05-07T09:54:49;4.65;;;3.83;;
12308;SDS011;6217;48.150;17.142;2023-05-07T09:59:01;6.13;;;3.17;;
12308;SDS011;6217;48.150;17.142;2023-05-07T10:03:11;6.07;;;3.92;;
12308;SDS011;6217;48.150;17.142;2023-05-07T10:07:36;3.45;;;3.15;;
12308;SDS011;6217;48.150;17.142;2023-05-07T10:11:46;5.15;;;4.63;;
12308;SDS011;6217;48.150;17.142;2023-05-07T10:15:55;5.05;;;4.43;;
12308;SDS011;6217;48.150;17.142;2023-05-07T10:20:05;5.05;;;3.65;;
12308;SDS011;6217;48.150;17.142;2023-05-07T10:24:14;4.97;;;4.13;;
12308;SDS011;6217;48.150;17.142;2023-05-07T10:28:27;4.90;;;4.50;;
12308;SDS011;6217;48.150;17.142;2023-05-07T10:32:45;5.78;;;5.13;;
12308;SDS011;6217;48.150;17.142;2023-05-07T10:37:09;5.18;;;3.75;;
12308;SDS011;6217;48.150;17.142;2023-05-07T10:41:17;4.43;;;3.92;;
12308;SDS011;6217;48.150;17.142;2023-05-07T10:45:24;13.00;;;3.92;;
12308;SDS011;6217;48.150;17.142;2023-05-07T10:49:33;4.13;;;3.72;;
12308;SDS011;6217;48.150;17.142;2023-05-07T10:53:43;4.65;;;3.78;;
12308;SDS011;6217;48.150;17.142;2023-05-07T10:57:57;5.10;;;3.45;;
12308;SDS011;6217;48.150;17.142;2023-05-07T11:11:45;4.00;;;3.10;;
12308;SDS011;6217;48.150;17.142;2023-05-07T11:16:27;4.43;;;2.92;;
12308;SDS011;6217;48.150;17.142;2023-05-07T11:20:52;11.82;;;2.80;;
12308;SDS011;6217;48.150;17.142;2023-05-07T11:25:21;2.47;;;2.28;;
12308;SDS011;6217;48.150;17.142;2023-05-07T11:29:35;2.60;;;2.10;;
12308;SDS011;6217;48.150;17.142;2023-05-07T11:37:59;3.92;;;2.00;;
12308;SDS011;6217;48.150;17.142;2023-05-07T11:42:06;3.83;;;1.95;;
12308;SDS011;6217;48.150;17.142;2023-05-07T11:46:13;1.70;;;1.60;;
12308;SDS011;6217;48.150;17.142;2023-05-07T11:50:19;3.20;;;1.77;;
12308;SDS011;6217;48.150;17.142;2023-05-07T11:54:25;2.53;;;1.67;;
12308;SDS011;6217;48.150;17.142;2023-05-07T11:58:31;5.18;;;1.63;;
12308;SDS011;6217;48.150;17.142;2023-05-07T12:02:37;1.73;;;1.52;;
12308;SDS011;6217;48.150;17.142;2023-05-07T12:06:43;4.43;;;1.70;;
12308;SDS011;6217;48.150;17.142;2023-05-07T12:10:50;1.30;;;1.20;;
12308;SDS011;6217;48.150;17.142;2023-05-07T12:14:56;1.60;;;1.45;;
12308;SDS011;6217;48.150;17.142;2023-05-07T12:19:02;2.83;;;1.75;;
12308;SDS011;6217;48.150;17.142;2023-05-07T12:23:08;2.58;;;1.60;;
12308;SDS011;6217;48.150;17.142;2023-05-07T12:27:14;1.50;;;1.30;;
12308;SDS011;6217;48.150;17.142;2023-05-07T12:31:21;1.80;;;1.50;;
12308;SDS011;6217;48.150;17.142;2023-05-07T12:35:28;3.17;;;1.80;;
12308;SDS011;6217;48.150;17.142;2023-05-07T12:39:44;2.30;;;1.55;;
12308;SDS011;6217;48.150;17.142;2023-05-07T12:43:55;1.30;;;1.17;;
12308;SDS011;6217;48.150;17.142;2023-05-07T12:48:02;1.98;;;1.50;;
12308;SDS011;6217;48.150;17.142;2023-05-07T12:52:08;1.40;;;1.30;;
12308;SDS011;6217;48.150;17.142;2023-05-07T12:56:16;1.38;;;1.17;;
12308;SDS011;6217;48.150;17.142;2023-05-07T13:00:35;1.67;;;1.20;;
12308;SDS011;6217;48.150;17.142;2023-05-07T13:04:42;4.38;;;1.20;;
12308;SDS011;6217;48.150;17.142;2023-05-07T13:08:48;1.20;;;1.10;;
12308;SDS011;6217;48.150;17.142;2023-05-07T13:12:54;1.65;;;1.23;;
12308;SDS011;6217;48.150;17.142;2023-05-07T13:17:00;1.17;;;1.05;;
12308;SDS011;6217;48.150;17.142;2023-05-07T13:21:06;1.38;;;1.05;;
12308;SDS011;6217;48.150;17.142;2023-05-07T13:25:12;1.40;;;1.30;;
12308;SDS011;6217;48.150;17.142;2023-05-07T13:29:18;1.33;;;1.10;;
12308;SDS011;6217;48.150;17.142;2023-05-07T13:33:23;3.10;;;1.20;;
12308;SDS011;6217;48.150;17.142;2023-05-07T13:37:29;2.60;;;1.10;;
12308;SDS011;6217;48.150;17.142;2023-05-07T13:41:35;2.85;;;1.65;;
12308;SDS011;6217;48.150;17.142;2023-05-07T13:45:41;1.30;;;1.20;;
12308;SDS011;6217;48.150;17.142;2023-05-07T13:49:47;2.08;;;1.85;;
12308;SDS011;6217;48.150;17.142;2023-05-07T13:53:56;1.25;;;1.10;;
12308;SDS011;6217;48.150;17.142;2023-05-07T13:58:03;0.90;;;0.90;;
12308;SDS011;6217;48.150;17.142;2023-05-07T14:02:09;1.92;;;1.00;;
12308;SDS011;6217;48.150;17.142;2023-05-07T14:06:15;1.20;;;1.02;;
12308;SDS011;6217;48.150;17.142;2023-05-07T14:10:21;2.60;;;1.17;;
12308;SDS011;6217;48.150;17.142;2023-05-07T14:14:27;3.20;;;1.20;;
12308;SDS011;6217;48.150;17.142;2023-05-07T14:18:33;2.42;;;1.27;;
12308;SDS011;6217;48.150;17.142;2023-05-07T14:22:40;1.27;;;1.17;;
12308;SDS011;6217;48.150;17.142;2023-05-07T14:26:46;3.42;;;1.00;;
12308;SDS011;6217;48.150;17.142;2023-05-07T14:30:52;2.78;;;1.13;;
12308;SDS011;6217;48.150;17.142;2023-05-07T14:34:58;1.10;;;1.00;;
12308;SDS011;6217;48.150;17.142;2023-05-07T14:39:04;1.27;;;1.17;;
12308;SDS011;6217;48.150;17.142;2023-05-07T14:43:09;2.60;;;0.93;;
12308;SDS011;6217;48.150;17.142;2023-05-07T14:47:15;1.27;;;0.93;;
12308;SDS011;6217;48.150;17.142;2023-05-07T14:51:21;0.82;;;0.82;;
12308;SDS011;6217;48.150;17.142;2023-05-07T14:55:27;1.88;;;1.23;;
12308;SDS011;6217;48.150;17.142;2023-05-07T14:59:33;2.28;;;1.00;;
12308;SDS011;6217;48.150;17.142;2023-05-07T15:03:39;2.35;;;1.13;;
12308;SDS011;6217;48.150;17.142;2023-05-07T15:07:45;1.27;;;1.00;;
12308;SDS011;6217;48.150;17.142;2023-05-07T15:11:51;4.22;;;1.20;;
12308;SDS011;6217;48.150;17.142;2023-05-07T15:15:58;2.78;;;1.10;;
12308;SDS011;6217;48.150;17.142;2023-05-07T15:20:04;3.17;;;1.67;;
12308;SDS011;6217;48.150;17.142;2023-05-07T15:24:10;1.67;;;1.20;;
12308;SDS011;6217;48.150;17.142;2023-05-07T15:28:16;3.70;;;1.40;;
12308;SDS011;6217;48.150;17.142;2023-05-07T15:32:22;1.42;;;1.33;;
12308;SDS011;6217;48.150;17.142;2023-05-07T15:36:28;1.70;;;1.48;;
12308;SDS011;6217;48.150;17.142;2023-05-07T15:40:35;1.35;;;1.25;;
12308;SDS011;6217;48.150;17.142;2023-05-07T15:44:42;2.03;;;1.50;;
12308;SDS011;6217;48.150;17.142;2023-05-07T15:48:48;2.35;;;1.80;;
12308;SDS011;6217;48.150;17.142;2023-05-07T15:52:54;1.60;;;1.30;;
12308;SDS011;6217;48.150;17.142;2023-05-07T15:57:00;1.52;;;1.42;;
12308;SDS011;6217;48.150;17.142;2023-05-07T16:01:08;1.95;;;1.13;;
12308;SDS011;6217;48.150;17.142;2023-05-07T16:05:14;1.90;;;1.38;;
12308;SDS011;6217;48.150;17.142;2023-05-07T16:09:20;1.45;;;1.35;;
12308;SDS011;6217;48.150;17.142;2023-05-07T16:13:26;3.17;;;1.55;;
12308;SDS011;6217;48.150;17.142;2023-05-07T16:17:32;1.63;;;1.48;;
12308;SDS011;6217;48.150;17.142;2023-05-07T16:21:38;1.48;;;1.38;;
12308;SDS011;6217;48.150;17.142;2023-05-07T16:25:45;1.30;;;1.20;;
12308;SDS011;6217;48.150;17.142;2023-05-07T16:29:51;1.70;;;1.60;;
12308;SDS011;6217;48.150;17.142;2023-05-07T16:33:56;1.85;;;1.65;;
12308;SDS011;6217;48.150;17.142;2023-05-07T16:38:03;1.70;;;1.60;;
12308;SDS011;6217;48.150;17.142;2023-05-07T16:42:13;1.40;;;1.30;;
12308;SDS011;6217;48.150;17.142;2023-05-07T16:46:19;1.90;;;1.40;;
12308;SDS011;6217;48.150;17.142;2023-05-07T16:50:25;1.63;;;1.45;;
12308;SDS011;6217;48.150;17.142;2023-05-07T16:54:31;1.88;;;1.63;;
12308;SDS011;6217;48.150;17.142;2023-05-07T16:58:37;3.72;;;1.67;;
12308;SDS011;6217;48.150;17.142;2023-05-07T17:02:43;1.70;;;1.60;;
12308;SDS011;6217;48.150;17.142;2023-05-07T17:06:50;1.95;;;1.70;;
12308;SDS011;6217;48.150;17.142;2023-05-07T17:10:56;3.33;;;1.95;;
12308;SDS011;6217;48.150;17.142;2023-05-07T17:15:02;1.80;;;1.70;;
12308;SDS011;6217;48.150;17.142;2023-05-07T17:19:09;2.00;;;1.80;;
12308;SDS011;6217;48.150;17.142;2023-05-07T17:23:14;2.00;;;1.80;;
12308;SDS011;6217;48.150;17.142;2023-05-07T17:27:20;2.00;;;1.80;;
12308;SDS011;6217;48.150;17.142;2023-05-07T17:31:26;2.17;;;1.92;;
12308;SDS011;6217;48.150;17.142;2023-05-07T17:35:32;5.05;;;2.40;;
12308;SDS011;6217;48.150;17.142;2023-05-07T17:39:38;2.95;;;2.55;;
12308;SDS011;6217;48.150;17.142;2023-05-07T17:43:44;3.55;;;3.22;;
12308;SDS011;6217;48.150;17.142;2023-05-07T17:47:50;3.10;;;2.80;;
12308;SDS011;6217;48.150;17.142;2023-05-07T17:51:56;4.63;;;3.33;;
12308;SDS011;6217;48.150;17.142;2023-05-07T17:56:02;4.18;;;3.78;;
12308;SDS011;6217;48.150;17.142;2023-05-07T18:00:08;4.10;;;3.70;;
12308;SDS011;6217;48.150;17.142;2023-05-07T18:04:14;5.32;;;4.25;;
12308;SDS011;6217;48.150;17.142;2023-05-07T18:08:20;8.02;;;5.18;;
12308;SDS011;6217;48.150;17.142;2023-05-07T18:12:26;7.15;;;5.78;;
12308;SDS011;6217;48.150;17.142;2023-05-07T18:16:32;8.00;;;6.53;;
12308;SDS011;6217;48.150;17.142;2023-05-07T18:20:38;5.55;;;4.88;;
12308;SDS011;6217;48.150;17.142;2023-05-07T18:24:44;7.78;;;5.53;;
12308;SDS011;6217;48.150;17.142;2023-05-07T18:28:50;6.78;;;6.07;;
12308;SDS011;6217;48.150;17.142;2023-05-07T18:32:56;6.13;;;5.63;;
12308;SDS011;6217;48.150;17.142;2023-05-07T18:37:02;7.57;;;6.80;;
12308;SDS011;6217;48.150;17.142;2023-05-07T18:41:08;8.18;;;6.97;;
12308;SDS011;6217;48.150;17.142;2023-05-07T18:45:14;7.97;;;7.18;;
12308;SDS011;6217;48.150;17.142;2023-05-07T18:49:20;8.52;;;7.65;;
12308;SDS011;6217;48.150;17.142;2023-05-07T18:53:26;7.78;;;7.05;;
12308;SDS011;6217;48.150;17.142;2023-05-07T18:57:33;12.77;;;7.38;;
12308;SDS011;6217;48.150;17.142;2023-05-07T19:01:39;10.95;;;7.88;;
12308;SDS011;6217;48.150;17.142;2023-05-07T19:05:45;7.28;;;6.60;;
12308;SDS011;6217;48.150;17.142;2023-05-07T19:09:51;8.93;;;8.05;;
12308;SDS011;6217;48.150;17.142;2023-05-07T19:13:56;10.50;;;8.73;;
12308;SDS011;6217;48.150;17.142;2023-05-07T19:18:02;7.50;;;6.80;;
12308;SDS011;6217;48.150;17.142;2023-05-07T19:22:08;8.05;;;7.25;;
12308;SDS011;6217;48.150;17.142;2023-05-07T19:26:14;11.73;;;8.93;;
12308;SDS011;6217;48.150;17.142;2023-05-07T19:30:20;9.52;;;8.55;;
12308;SDS011;6217;48.150;17.142;2023-05-07T19:34:26;8.50;;;7.43;;
12308;SDS011;6217;48.150;17.142;2023-05-07T19:38:34;9.60;;;8.70;;
12308;SDS011;6217;48.150;17.142;2023-05-07T19:42:40;8.60;;;7.82;;
12308;SDS011;6217;48.150;17.142;2023-05-07T19:46:46;10.23;;;9.18;;
12308;SDS011;6217;48.150;17.142;2023-05-07T19:50:52;12.20;;;10.95;;
12308;SDS011;6217;48.150;17.142;2023-05-07T19:54:58;11.25;;;9.93;;
12308;SDS011;6217;48.150;17.142;2023-05-07T19:59:04;9.15;;;8.23;;
12308;SDS011;6217;48.150;17.142;2023-05-07T20:03:10;10.80;;;9.10;;
12308;SDS011;6217;48.150;17.142;2023-05-07T20:07:22;9.95;;;8.75;;
12308;SDS011;6217;48.150;17.142;2023-05-07T20:11:28;9.43;;;8.40;;
12308;SDS011;6217;48.150;17.142;2023-05-07T20:15:37;14.10;;;8.80;;
12308;SDS011;6217;48.150;17.142;2023-05-07T20:19:43;10.70;;;9.60;;
12308;SDS011;6217;48.150;17.142;2023-05-07T20:23:49;12.30;;;9.65;;
12308;SDS011;6217;48.150;17.142;2023-05-07T20:27:55;9.50;;;8.65;;
12308;SDS011;6217;48.150;17.142;2023-05-07T20:32:01;8.18;;;7.28;;
12308;SDS011;6217;48.150;17.142;2023-05-07T20:36:07;10.88;;;7.22;;
12308;SDS011;6217;48.150;17.142;2023-05-07T20:40:13;8.02;;;7.22;;
12308;SDS011;6217;48.150;17.142;2023-05-07T20:44:19;7.35;;;6.65;;
12308;SDS011;6217;48.150;17.142;2023-05-07T20:48:25;9.02;;;8.13;;
12308;SDS011;6217;48.150;17.142;2023-05-07T20:52:34;9.65;;;7.60;;
12308;SDS011;6217;48.150;17.142;2023-05-07T20:56:40;9.65;;;7.22;;
12308;SDS011;6217;48.150;17.142;2023-05-07T21:00:46;9.68;;;8.60;;
12308;SDS011;6217;48.150;17.142;2023-05-07T21:04:52;9.00;;;7.80;;
12308;SDS011;6217;48.150;17.142;2023-05-07T21:08:58;8.60;;;7.35;;
12308;SDS011;6217;48.150;17.142;2023-05-07T21:13:04;9.48;;;7.63;;
12308;SDS011;6217;48.150;17.142;2023-05-07T21:17:10;7.65;;;6.35;;
12308;SDS011;6217;48.150;17.142;2023-05-07T21:21:16;7.93;;;6.60;;
12308;SDS011;6217;48.150;17.142;2023-05-07T21:25:22;8.52;;;6.97;;
12308;SDS011;6217;48.150;17.142;2023-05-07T21:29:28;8.98;;;5.35;;
12308;SDS011;6217;48.150;17.142;2023-05-07T21:33:35;7.18;;;6.47;;
12308;SDS011;6217;48.150;17.142;2023-05-07T21:37:41;8.68;;;5.75;;
12308;SDS011;6217;48.150;17.142;2023-05-07T21:41:47;7.45;;;5.80;;
12308;SDS011;6217;48.150;17.142;2023-05-07T21:45:52;8.23;;;7.53;;
12308;SDS011;6217;48.150;17.142;2023-05-07T21:49:59;7.03;;;5.78;;
12308;SDS011;6217;48.150;17.142;2023-05-07T21:54:05;5.82;;;5.32;;
12308;SDS011;6217;48.150;17.142;2023-05-07T21:58:11;5.18;;;4.68;;
12308;SDS011;6217;48.150;17.142;2023-05-07T22:02:17;6.90;;;5.43;;
12308;SDS011;6217;48.150;17.142;2023-05-07T22:06:23;5.55;;;4.47;;
12308;SDS011;6217;48.150;17.142;2023-05-07T22:10:29;6.65;;;5.68;;
12308;SDS011;6217;48.150;17.142;2023-05-07T22:14:35;6.03;;;5.20;;
12308;SDS011;6217;48.150;17.142;2023-05-07T22:18:41;5.53;;;4.50;;
12308;SDS011;6217;48.150;17.142;2023-05-07T22:22:48;5.28;;;4.60;;
12308;SDS011;6217;48.150;17.142;2023-05-07T22:27:00;6.63;;;4.35;;
12308;SDS011;6217;48.150;17.142;2023-05-07T22:31:05;5.22;;;4.72;;
12308;SDS011;6217;48.150;17.142;2023-05-07T22:35:11;5.97;;;4.72;;
12308;SDS011;6217;48.150;17.142;2023-05-07T22:39:17;6.90;;;4.78;;
12308;SDS011;6217;48.150;17.142;2023-05-07T22:43:23;5.70;;;5.20;;
12308;SDS011;6217;48.150;17.142;2023-05-07T22:47:30;6.18;;;3.97;;
12308;SDS011;6217;48.150;17.142;2023-05-07T22:51:36;6.15;;;5.35;;
12308;SDS011;6217;48.150;17.142;2023-05-07T22:55:42;4.40;;;3.55;;
12308;SDS011;6217;48.150;17.142;2023-05-07T22:59:51;5.90;;;4.60;;
12308;SDS011;6217;48.150;17.142;2023-05-07T23:03:59;5.03;;;4.32;;
12308;SDS011;6217;48.150;17.142;2023-05-07T23:08:04;4.20;;;3.50;;
12308;SDS011;6217;48.150;17.142;2023-05-07T23:12:10;4.50;;;3.55;;
12308;SDS011;6217;48.150;17.142;2023-05-07T23:16:16;4.30;;;3.40;;
12308;SDS011;6217;48.150;17.142;2023-05-07T23:20:22;5.57;;;3.75;;
12308;SDS011;6217;48.150;17.142;2023-05-07T23:24:28;4.07;;;3.72;;
12308;SDS011;6217;48.150;17.142;2023-05-07T23:28:34;3.90;;;3.50;;
12308;SDS011;6217;48.150;17.142;2023-05-07T23:32:40;5.40;;;2.97;;
12308;SDS011;6217;48.150;17.142;2023-05-07T23:36:46;5.60;;;3.60;;
12308;SDS011;6217;48.150;17.142;2023-05-07T23:40:52;5.25;;;3.72;;
12308;SDS011;6217;48.150;17.142;2023-05-07T23:44:58;6.85;;;3.47;;
12308;SDS011;6217;48.150;17.142;2023-05-07T23:49:04;3.03;;;2.72;;
12308;SDS011;6217;48.150;17.142;2023-05-07T23:53:10;3.85;;;3.28;;
12308;SDS011;6217;48.150;17.142;2023-05-07T23:57:16;3.95;;;3.47;;
